createdAt,value
2023-03-03T00:01:48.751Z,7.03
2023-03-03T00:04:20.684Z,8.20
2023-03-03T00:06:52.745Z,7.17
2023-03-03T00:09:24.617Z,8.83
2023-03-03T00:11:56.448Z,7.73
2023-03-03T00:14:28.258Z,7.73
2023-03-03T00:17:00.092Z,8.53
2023-03-03T00:19:31.953Z,8.83
2023-03-03T00:22:03.771Z,6.80
2023-03-03T00:24:35.584Z,7.27
2023-03-03T00:27:07.351Z,6.93
2023-03-03T00:29:39.325Z,6.93
2023-03-03T00:32:11.200Z,8.57
2023-03-03T00:34:43.251Z,7.50
2023-03-03T00:37:15.054Z,9.57
2023-03-03T00:39:46.974Z,6.60
2023-03-03T00:42:18.734Z,6.53
2023-03-03T00:44:50.507Z,7.43
2023-03-03T00:47:22.315Z,8.23
2023-03-03T00:49:54.117Z,6.27
2023-03-03T00:52:25.949Z,6.93
2023-03-03T00:54:57.720Z,7.37
2023-03-03T00:57:29.546Z,9.90
2023-03-03T01:00:01.763Z,9.13
2023-03-03T01:02:35.005Z,8.80
2023-03-03T01:05:06.838Z,9.30
2023-03-03T01:07:38.615Z,9.63
2023-03-03T01:10:10.427Z,10.40
2023-03-03T01:12:42.207Z,9.93
2023-03-03T01:15:14.028Z,8.53
2023-03-03T01:17:45.870Z,9.70
2023-03-03T01:20:17.691Z,9.13
2023-03-03T01:22:49.535Z,10.63
2023-03-03T01:25:21.352Z,8.43
2023-03-03T01:27:53.140Z,10.53
2023-03-03T01:30:25.024Z,10.03
2023-03-03T01:32:56.827Z,11.93
2023-03-03T01:35:28.617Z,8.87
2023-03-03T01:38:00.425Z,9.03
2023-03-03T01:40:32.461Z,10.63
2023-03-03T01:43:04.284Z,12.67
2023-03-03T01:45:36.090Z,7.67
2023-03-03T01:48:07.863Z,10.80
2023-03-03T01:50:39.843Z,10.63
2023-03-03T01:53:11.648Z,13.50
2023-03-03T01:55:43.471Z,11.43
2023-03-03T01:58:15.398Z,14.17
2023-03-03T02:00:47.194Z,9.20
2023-03-03T02:03:19.334Z,10.43
2023-03-03T02:05:51.150Z,14.17
2023-03-03T02:08:22.990Z,11.87
2023-03-03T02:10:54.894Z,11.63
2023-03-03T02:13:26.697Z,10.63
2023-03-03T02:15:59.492Z,9.93
2023-03-03T02:18:31.991Z,11.77
2023-03-03T02:21:03.908Z,12.87
2023-03-03T02:23:35.751Z,11.70
2023-03-03T02:26:07.901Z,10.63
2023-03-03T02:28:40.007Z,11.50
2023-03-03T02:31:11.953Z,10.70
2023-03-03T02:33:43.919Z,11.03
2023-03-03T02:36:15.733Z,11.27
2023-03-03T02:38:47.639Z,11.37
2023-03-03T02:41:19.486Z,12.70
